CheckWX is a tool to help pilots better visualize weather data.  It is not intended as a substitute for an official pre-flight weather briefing.

14:03:41 UTC

TFFF METAR
Martinique Aimé Césaire International Airport
Fort-de-France, Martinique
Current

34 mins ago

TFFF 261330Z AUTO 08006KT 9999 FEW025 BKN041 27/22 Q1016
Observed
Jan-26 @ 13:30 UTC
Wind
  • 080° at 6 KTS
Visibility
10,000+ meters
Flight Rules
VFR
Cloud Levels
  • Few at 2,500' AGL
  • Broken at 4,100' AGL
Temperature
27°C / 81°F
Dewpoint
22°C / 72°F
Heat Index
29°C / 85°F
Humidity
74%
Altimeter
30" Hg
Pressure
1015.92 hPa
Previous

1 hour ago

TFFF 261300Z AUTO VRB03KT 9999 FEW028 SCT039 25/22 Q1016
Observed
Jan-26 @ 13:00 UTC
Wind
  • Variable at 3 KTS
Visibility
10,000+ meters
Flight Rules
VFR
Cloud Levels
  • Few at 2,800' AGL
  • Scattered at 3,900' AGL
Temperature
25°C / 77°F
Dewpoint
22°C / 72°F
Humidity
83%
Altimeter
30" Hg
Pressure
1015.92 hPa
Previous

2 hours ago

TFFF 261230Z AUTO 13003KT 090V150 9999 FEW028 BKN039 23/22 Q1016
Observed
Jan-26 @ 12:30 UTC
Wind
  • 130° at 3 KTS
Visibility
10,000+ meters
Flight Rules
VFR
Cloud Levels
  • Few at 2,800' AGL
  • Broken at 3,900' AGL
Temperature
23°C / 73°F
Dewpoint
22°C / 72°F
Humidity
94%
Altimeter
30" Hg
Pressure
1015.92 hPa